Plaistow, New Hampshire
Current Conditions -  °F | °C
As of 1:54 PM on Friday 31 Oct 2014 (Local Time) from KLWM Reporting Station
Broken Clouds Broken Clouds  
Wind Chill: 52°   Ceiling: 6000
Heat Index: 52°   Visibility: 10mi
Dew Point: 36°   Wind: 8mph
Humidity: 54%   Direction: 50°NE
Pressure: 30.01"   Gusts: NA
Location:  42.84°N, 71.09°W
Report Text: KLWM 311754Z 05007KT 10SM FEW039 BKN060 11/02 A3001 RMK AO2 SLP162 T01110022 10117 20056 58016
Loading
Personal Weather Stations






























Interactive Weather Map
Tropical Storm Tracking
New forecast layout! Learn more

10-Day Weather Forecast

Advertisements
Track Severe Weather on mobile